sensor_id;sensor_type;location;lat;lon;timestamp;P1;durP1;ratioP1;P2;durP2;ratioP2
55469;SDS011;41334;47.872;16.384;2022-07-06T00:02:42;5.63;;;2.90;;
55469;SDS011;41334;47.872;16.384;2022-07-06T00:05:44;5.65;;;3.70;;
55469;SDS011;41334;47.872;16.384;2022-07-06T00:08:46;3.67;;;3.35;;
55469;SDS011;41334;47.872;16.384;2022-07-06T00:11:47;6.90;;;3.58;;
55469;SDS011;41334;47.872;16.384;2022-07-06T00:14:49;4.53;;;3.50;;
55469;SDS011;41334;47.872;16.384;2022-07-06T00:17:51;5.05;;;3.42;;
55469;SDS011;41334;47.872;16.384;2022-07-06T00:20:53;6.85;;;4.25;;
55469;SDS011;41334;47.872;16.384;2022-07-06T00:23:55;4.35;;;3.83;;
55469;SDS011;41334;47.872;16.384;2022-07-06T00:26:56;4.75;;;3.85;;
55469;SDS011;41334;47.872;16.384;2022-07-06T00:29:58;6.28;;;4.30;;
55469;SDS011;41334;47.872;16.384;2022-07-06T00:33:00;4.80;;;3.78;;
55469;SDS011;41334;47.872;16.384;2022-07-06T00:36:02;5.22;;;4.25;;
55469;SDS011;41334;47.872;16.384;2022-07-06T00:39:04;4.65;;;4.05;;
55469;SDS011;41334;47.872;16.384;2022-07-06T00:42:06;4.90;;;4.05;;
55469;SDS011;41334;47.872;16.384;2022-07-06T00:45:08;4.78;;;4.22;;
55469;SDS011;41334;47.872;16.384;2022-07-06T00:48:12;4.60;;;3.72;;
55469;SDS011;41334;47.872;16.384;2022-07-06T00:51:14;4.38;;;3.95;;
55469;SDS011;41334;47.872;16.384;2022-07-06T00:54:16;4.53;;;3.78;;
55469;SDS011;41334;47.872;16.384;2022-07-06T00:57:19;4.75;;;3.83;;
55469;SDS011;41334;47.872;16.384;2022-07-06T01:00:22;4.40;;;3.88;;
55469;SDS011;41334;47.872;16.384;2022-07-06T01:03:25;3.20;;;2.65;;
55469;SDS011;41334;47.872;16.384;2022-07-06T01:06:27;5.97;;;3.60;;
55469;SDS011;41334;47.872;16.384;2022-07-06T01:09:29;4.28;;;3.35;;
55469;SDS011;41334;47.872;16.384;2022-07-06T01:12:34;4.25;;;3.42;;
55469;SDS011;41334;47.872;16.384;2022-07-06T01:15:37;4.88;;;3.40;;
55469;SDS011;41334;47.872;16.384;2022-07-06T01:18:41;3.42;;;2.67;;
55469;SDS011;41334;47.872;16.384;2022-07-06T01:21:44;8.05;;;2.90;;
55469;SDS011;41334;47.872;16.384;2022-07-06T01:24:46;3.50;;;2.70;;
55469;SDS011;41334;47.872;16.384;2022-07-06T01:27:48;4.43;;;2.92;;
55469;SDS011;41334;47.872;16.384;2022-07-06T01:30:49;3.85;;;3.22;;
55469;SDS011;41334;47.872;16.384;2022-07-06T01:33:53;3.83;;;3.42;;
55469;SDS011;41334;47.872;16.384;2022-07-06T01:36:56;4.57;;;2.97;;
55469;SDS011;41334;47.872;16.384;2022-07-06T01:39:59;5.40;;;3.10;;
55469;SDS011;41334;47.872;16.384;2022-07-06T01:43:01;3.70;;;3.13;;
55469;SDS011;41334;47.872;16.384;2022-07-06T01:46:03;3.42;;;2.97;;
55469;SDS011;41334;47.872;16.384;2022-07-06T01:49:05;3.42;;;2.90;;
55469;SDS011;41334;47.872;16.384;2022-07-06T01:52:08;4.40;;;3.08;;
55469;SDS011;41334;47.872;16.384;2022-07-06T01:55:10;3.72;;;2.75;;
55469;SDS011;41334;47.872;16.384;2022-07-06T01:58:13;3.33;;;3.00;;
55469;SDS011;41334;47.872;16.384;2022-07-06T02:01:16;3.92;;;3.30;;
55469;SDS011;41334;47.872;16.384;2022-07-06T02:04:19;5.53;;;2.97;;
55469;SDS011;41334;47.872;16.384;2022-07-06T02:07:21;4.00;;;3.00;;
55469;SDS011;41334;47.872;16.384;2022-07-06T02:10:23;5.32;;;2.88;;
55469;SDS011;41334;47.872;16.384;2022-07-06T02:13:25;5.50;;;3.28;;
55469;SDS011;41334;47.872;16.384;2022-07-06T02:16:27;3.65;;;2.80;;
55469;SDS011;41334;47.872;16.384;2022-07-06T02:19:30;4.35;;;3.13;;
55469;SDS011;41334;47.872;16.384;2022-07-06T02:22:32;3.00;;;2.70;;
55469;SDS011;41334;47.872;16.384;2022-07-06T02:25:34;3.30;;;2.75;;
55469;SDS011;41334;47.872;16.384;2022-07-06T02:28:36;4.28;;;3.00;;
55469;SDS011;41334;47.872;16.384;2022-07-06T02:31:39;3.08;;;2.78;;
55469;SDS011;41334;47.872;16.384;2022-07-06T02:34:42;10.57;;;3.08;;
55469;SDS011;41334;47.872;16.384;2022-07-06T02:37:45;5.88;;;3.33;;
55469;SDS011;41334;47.872;16.384;2022-07-06T02:40:48;7.57;;;4.10;;
55469;SDS011;41334;47.872;16.384;2022-07-06T02:43:50;4.55;;;3.08;;
55469;SDS011;41334;47.872;16.384;2022-07-06T02:46:52;4.82;;;3.40;;
55469;SDS011;41334;47.872;16.384;2022-07-06T02:49:55;3.45;;;3.00;;
55469;SDS011;41334;47.872;16.384;2022-07-06T02:52:57;3.38;;;3.05;;
55469;SDS011;41334;47.872;16.384;2022-07-06T02:56:00;3.20;;;2.70;;
55469;SDS011;41334;47.872;16.384;2022-07-06T02:59:03;9.75;;;3.05;;
55469;SDS011;41334;47.872;16.384;2022-07-06T03:02:11;5.53;;;2.92;;
55469;SDS011;41334;47.872;16.384;2022-07-06T03:05:14;6.22;;;3.17;;
55469;SDS011;41334;47.872;16.384;2022-07-06T03:08:16;3.60;;;3.30;;
55469;SDS011;41334;47.872;16.384;2022-07-06T03:11:18;3.63;;;2.85;;
55469;SDS011;41334;47.872;16.384;2022-07-06T03:14:21;3.03;;;2.72;;
55469;SDS011;41334;47.872;16.384;2022-07-06T03:17:24;3.60;;;2.83;;
55469;SDS011;41334;47.872;16.384;2022-07-06T03:20:27;6.53;;;3.55;;
55469;SDS011;41334;47.872;16.384;2022-07-06T03:23:30;3.33;;;2.95;;
55469;SDS011;41334;47.872;16.384;2022-07-06T03:26:32;5.13;;;3.08;;
55469;SDS011;41334;47.872;16.384;2022-07-06T03:29:35;3.78;;;3.00;;
55469;SDS011;41334;47.872;16.384;2022-07-06T03:32:38;4.07;;;3.08;;
55469;SDS011;41334;47.872;16.384;2022-07-06T03:35:41;4.22;;;2.97;;
55469;SDS011;41334;47.872;16.384;2022-07-06T03:38:45;10.20;;;3.67;;
55469;SDS011;41334;47.872;16.384;2022-07-06T03:41:47;3.80;;;3.15;;
55469;SDS011;41334;47.872;16.384;2022-07-06T03:44:49;4.85;;;2.72;;
55469;SDS011;41334;47.872;16.384;2022-07-06T03:47:52;3.70;;;2.83;;
55469;SDS011;41334;47.872;16.384;2022-07-06T03:50:54;4.28;;;2.60;;
55469;SDS011;41334;47.872;16.384;2022-07-06T03:53:57;5.90;;;3.47;;
55469;SDS011;41334;47.872;16.384;2022-07-06T03:56:59;5.60;;;2.90;;
55469;SDS011;41334;47.872;16.384;2022-07-06T04:00:01;5.70;;;2.63;;
55469;SDS011;41334;47.872;16.384;2022-07-06T04:03:14;4.50;;;2.63;;
55469;SDS011;41334;47.872;16.384;2022-07-06T04:06:21;3.53;;;2.70;;
55469;SDS011;41334;47.872;16.384;2022-07-06T04:09:24;3.30;;;2.45;;
55469;SDS011;41334;47.872;16.384;2022-07-06T04:12:27;3.55;;;2.72;;
55469;SDS011;41334;47.872;16.384;2022-07-06T04:15:29;4.30;;;2.55;;
55469;SDS011;41334;47.872;16.384;2022-07-06T04:18:31;3.38;;;2.60;;
55469;SDS011;41334;47.872;16.384;2022-07-06T04:21:33;3.25;;;2.67;;
55469;SDS011;41334;47.872;16.384;2022-07-06T04:24:36;2.80;;;2.40;;
55469;SDS011;41334;47.872;16.384;2022-07-06T04:27:37;3.92;;;2.92;;
55469;SDS011;41334;47.872;16.384;2022-07-06T04:30:40;6.07;;;2.53;;
55469;SDS011;41334;47.872;16.384;2022-07-06T04:33:45;2.85;;;2.40;;
55469;SDS011;41334;47.872;16.384;2022-07-06T04:36:47;4.65;;;2.20;;
55469;SDS011;41334;47.872;16.384;2022-07-06T04:39:50;2.53;;;2.28;;
55469;SDS011;41334;47.872;16.384;2022-07-06T04:42:52;3.58;;;2.45;;
55469;SDS011;41334;47.872;16.384;2022-07-06T04:45:56;2.47;;;2.28;;
55469;SDS011;41334;47.872;16.384;2022-07-06T04:48:58;2.63;;;1.98;;
55469;SDS011;41334;47.872;16.384;2022-07-06T04:52:04;3.20;;;2.23;;
55469;SDS011;41334;47.872;16.384;2022-07-06T04:55:07;2.47;;;2.00;;
55469;SDS011;41334;47.872;16.384;2022-07-06T04:58:10;3.80;;;1.83;;
55469;SDS011;41334;47.872;16.384;2022-07-06T05:01:13;2.58;;;2.10;;
55469;SDS011;41334;47.872;16.384;2022-07-06T05:04:16;2.13;;;1.90;;
55469;SDS011;41334;47.872;16.384;2022-07-06T05:07:21;2.92;;;2.30;;
55469;SDS011;41334;47.872;16.384;2022-07-06T05:10:24;3.65;;;2.22;;
55469;SDS011;41334;47.872;16.384;2022-07-06T05:13:28;7.78;;;2.40;;
55469;SDS011;41334;47.872;16.384;2022-07-06T05:16:31;2.90;;;2.47;;
55469;SDS011;41334;47.872;16.384;2022-07-06T05:19:34;2.95;;;2.15;;
55469;SDS011;41334;47.872;16.384;2022-07-06T05:22:36;3.00;;;2.17;;
55469;SDS011;41334;47.872;16.384;2022-07-06T05:25:46;2.88;;;2.00;;
55469;SDS011;41334;47.872;16.384;2022-07-06T05:28:48;3.20;;;2.13;;
55469;SDS011;41334;47.872;16.384;2022-07-06T05:31:53;2.72;;;2.05;;
55469;SDS011;41334;47.872;16.384;2022-07-06T05:34:56;2.78;;;2.00;;
55469;SDS011;41334;47.872;16.384;2022-07-06T05:38:18;2.80;;;2.35;;
55469;SDS011;41334;47.872;16.384;2022-07-06T05:41:21;6.53;;;1.92;;
55469;SDS011;41334;47.872;16.384;2022-07-06T05:44:23;2.70;;;1.88;;
55469;SDS011;41334;47.872;16.384;2022-07-06T05:47:25;3.65;;;1.90;;
55469;SDS011;41334;47.872;16.384;2022-07-06T05:50:46;3.03;;;2.33;;
55469;SDS011;41334;47.872;16.384;2022-07-06T05:53:48;2.53;;;1.90;;
55469;SDS011;41334;47.872;16.384;2022-07-06T05:56:52;2.50;;;1.80;;
55469;SDS011;41334;47.872;16.384;2022-07-06T05:59:55;3.42;;;2.10;;
55469;SDS011;41334;47.872;16.384;2022-07-06T06:02:59;3.80;;;1.45;;
55469;SDS011;41334;47.872;16.384;2022-07-06T06:06:01;3.05;;;1.52;;
55469;SDS011;41334;47.872;16.384;2022-07-06T06:09:04;1.70;;;1.27;;
55469;SDS011;41334;47.872;16.384;2022-07-06T06:12:06;4.97;;;1.77;;
55469;SDS011;41334;47.872;16.384;2022-07-06T06:15:08;2.30;;;1.55;;
55469;SDS011;41334;47.872;16.384;2022-07-06T06:18:11;2.03;;;1.70;;
55469;SDS011;41334;47.872;16.384;2022-07-06T06:21:14;2.78;;;1.40;;
55469;SDS011;41334;47.872;16.384;2022-07-06T06:24:15;4.28;;;2.13;;
55469;SDS011;41334;47.872;16.384;2022-07-06T06:27:17;1.70;;;1.40;;
55469;SDS011;41334;47.872;16.384;2022-07-06T06:30:19;2.53;;;1.75;;
55469;SDS011;41334;47.872;16.384;2022-07-06T06:33:21;1.80;;;1.38;;
55469;SDS011;41334;47.872;16.384;2022-07-06T06:36:23;2.28;;;1.60;;
55469;SDS011;41334;47.872;16.384;2022-07-06T06:39:25;1.98;;;1.63;;
55469;SDS011;41334;47.872;16.384;2022-07-06T06:42:27;2.33;;;1.48;;
55469;SDS011;41334;47.872;16.384;2022-07-06T06:45:29;2.55;;;1.55;;
55469;SDS011;41334;47.872;16.384;2022-07-06T06:48:31;3.05;;;1.30;;
55469;SDS011;41334;47.872;16.384;2022-07-06T06:51:33;3.25;;;1.50;;
55469;SDS011;41334;47.872;16.384;2022-07-06T06:54:35;1.83;;;1.15;;
55469;SDS011;41334;47.872;16.384;2022-07-06T06:57:37;2.28;;;1.48;;
55469;SDS011;41334;47.872;16.384;2022-07-06T07:00:39;2.20;;;1.40;;
55469;SDS011;41334;47.872;16.384;2022-07-06T07:03:41;1.85;;;1.40;;
55469;SDS011;41334;47.872;16.384;2022-07-06T07:06:42;1.67;;;1.20;;
55469;SDS011;41334;47.872;16.384;2022-07-06T07:09:44;2.97;;;1.48;;
55469;SDS011;41334;47.872;16.384;2022-07-06T07:12:47;3.75;;;1.42;;
55469;SDS011;41334;47.872;16.384;2022-07-06T07:15:48;2.30;;;1.23;;
55469;SDS011;41334;47.872;16.384;2022-07-06T07:18:51;2.55;;;1.40;;
55469;SDS011;41334;47.872;16.384;2022-07-06T07:21:52;3.20;;;1.48;;
55469;SDS011;41334;47.872;16.384;2022-07-06T07:24:54;6.40;;;1.30;;
55469;SDS011;41334;47.872;16.384;2022-07-06T07:27:56;8.48;;;1.58;;
55469;SDS011;41334;47.872;16.384;2022-07-06T07:30:58;5.22;;;1.25;;
55469;SDS011;41334;47.872;16.384;2022-07-06T07:34:00;1.50;;;1.00;;
55469;SDS011;41334;47.872;16.384;2022-07-06T07:37:02;3.30;;;1.20;;
55469;SDS011;41334;47.872;16.384;2022-07-06T07:40:04;2.60;;;1.27;;
55469;SDS011;41334;47.872;16.384;2022-07-06T07:43:07;2.85;;;1.35;;
55469;SDS011;41334;47.872;16.384;2022-07-06T07:46:09;3.35;;;1.50;;
55469;SDS011;41334;47.872;16.384;2022-07-06T07:49:12;1.63;;;1.15;;
55469;SDS011;41334;47.872;16.384;2022-07-06T07:52:21;5.18;;;1.60;;
55469;SDS011;41334;47.872;16.384;2022-07-06T07:55:23;3.85;;;1.17;;
55469;SDS011;41334;47.872;16.384;2022-07-06T07:58:43;3.22;;;1.20;;
55469;SDS011;41334;47.872;16.384;2022-07-06T08:01:46;5.97;;;1.20;;
55469;SDS011;41334;47.872;16.384;2022-07-06T08:04:48;1.38;;;0.93;;
55469;SDS011;41334;47.872;16.384;2022-07-06T08:07:50;1.85;;;1.35;;
55469;SDS011;41334;47.872;16.384;2022-07-06T08:10:52;1.70;;;1.00;;
55469;SDS011;41334;47.872;16.384;2022-07-06T08:14:14;2.95;;;1.40;;
55469;SDS011;41334;47.872;16.384;2022-07-06T08:17:18;1.33;;;1.02;;
55469;SDS011;41334;47.872;16.384;2022-07-06T08:20:20;2.35;;;1.25;;
55469;SDS011;41334;47.872;16.384;2022-07-06T08:23:23;1.60;;;1.20;;
55469;SDS011;41334;47.872;16.384;2022-07-06T08:26:26;3.53;;;1.40;;
55469;SDS011;41334;47.872;16.384;2022-07-06T08:29:28;1.85;;;1.10;;
55469;SDS011;41334;47.872;16.384;2022-07-06T08:32:30;4.13;;;1.35;;
55469;SDS011;41334;47.872;16.384;2022-07-06T08:35:52;3.22;;;1.15;;
55469;SDS011;41334;47.872;16.384;2022-07-06T08:38:54;3.35;;;1.45;;
55469;SDS011;41334;47.872;16.384;2022-07-06T08:41:56;2.20;;;1.40;;
55469;SDS011;41334;47.872;16.384;2022-07-06T08:45:00;2.13;;;1.50;;
55469;SDS011;41334;47.872;16.384;2022-07-06T08:48:04;1.73;;;1.13;;
55469;SDS011;41334;47.872;16.384;2022-07-06T08:51:07;4.32;;;1.50;;
55469;SDS011;41334;47.872;16.384;2022-07-06T08:54:11;1.70;;;1.20;;
55469;SDS011;41334;47.872;16.384;2022-07-06T08:57:13;3.72;;;1.70;;
55469;SDS011;41334;47.872;16.384;2022-07-06T09:00:16;2.00;;;1.50;;
55469;SDS011;41334;47.872;16.384;2022-07-06T09:03:18;1.60;;;1.27;;
55469;SDS011;41334;47.872;16.384;2022-07-06T09:06:24;1.60;;;1.20;;
55469;SDS011;41334;47.872;16.384;2022-07-06T09:09:27;2.20;;;1.25;;
55469;SDS011;41334;47.872;16.384;2022-07-06T09:12:32;3.25;;;1.60;;
55469;SDS011;41334;47.872;16.384;2022-07-06T09:15:34;1.80;;;1.25;;
55469;SDS011;41334;47.872;16.384;2022-07-06T09:18:38;3.13;;;1.10;;
55469;SDS011;41334;47.872;16.384;2022-07-06T09:21:41;2.13;;;1.23;;
55469;SDS011;41334;47.872;16.384;2022-07-06T09:24:43;1.67;;;1.08;;
55469;SDS011;41334;47.872;16.384;2022-07-06T09:27:46;2.78;;;1.45;;
55469;SDS011;41334;47.872;16.384;2022-07-06T09:30:54;1.40;;;1.10;;
55469;SDS011;41334;47.872;16.384;2022-07-06T09:34:01;5.35;;;1.70;;
55469;SDS011;41334;47.872;16.384;2022-07-06T09:37:07;3.50;;;1.38;;
55469;SDS011;41334;47.872;16.384;2022-07-06T09:40:15;2.78;;;1.45;;
55469;SDS011;41334;47.872;16.384;2022-07-06T09:43:21;3.90;;;1.40;;
55469;SDS011;41334;47.872;16.384;2022-07-06T09:46:26;1.73;;;1.23;;
55469;SDS011;41334;47.872;16.384;2022-07-06T09:49:28;1.80;;;1.10;;
55469;SDS011;41334;47.872;16.384;2022-07-06T09:52:33;3.45;;;1.55;;
55469;SDS011;41334;47.872;16.384;2022-07-06T09:55:36;5.43;;;1.45;;
55469;SDS011;41334;47.872;16.384;2022-07-06T09:58:38;2.85;;;1.55;;
55469;SDS011;41334;47.872;16.384;2022-07-06T10:02:01;1.50;;;1.20;;
55469;SDS011;41334;47.872;16.384;2022-07-06T10:05:06;3.95;;;1.60;;
55469;SDS011;41334;47.872;16.384;2022-07-06T10:08:09;2.28;;;1.25;;
55469;SDS011;41334;47.872;16.384;2022-07-06T10:11:11;2.20;;;1.30;;
55469;SDS011;41334;47.872;16.384;2022-07-06T10:14:26;1.75;;;1.20;;
55469;SDS011;41334;47.872;16.384;2022-07-06T10:17:30;2.17;;;1.45;;
55469;SDS011;41334;47.872;16.384;2022-07-06T10:20:32;1.60;;;1.10;;
55469;SDS011;41334;47.872;16.384;2022-07-06T10:23:39;1.63;;;1.25;;
55469;SDS011;41334;47.872;16.384;2022-07-06T10:26:42;1.63;;;1.38;;
55469;SDS011;41334;47.872;16.384;2022-07-06T10:29:44;2.75;;;1.17;;
55469;SDS011;41334;47.872;16.384;2022-07-06T10:32:47;1.55;;;1.15;;
55469;SDS011;41334;47.872;16.384;2022-07-06T10:35:50;3.72;;;1.70;;
55469;SDS011;41334;47.872;16.384;2022-07-06T10:38:52;2.47;;;1.45;;
55469;SDS011;41334;47.872;16.384;2022-07-06T10:41:54;3.15;;;1.25;;
55469;SDS011;41334;47.872;16.384;2022-07-06T10:44:56;3.25;;;1.40;;
55469;SDS011;41334;47.872;16.384;2022-07-06T10:51:14;2.38;;;1.10;;
55469;SDS011;41334;47.872;16.384;2022-07-06T10:54:27;1.17;;;1.00;;
55469;SDS011;41334;47.872;16.384;2022-07-06T10:57:53;3.03;;;1.15;;
55469;SDS011;41334;47.872;16.384;2022-07-06T11:00:55;3.72;;;1.17;;
55469;SDS011;41334;47.872;16.384;2022-07-06T11:07:07;3.80;;;1.17;;
55469;SDS011;41334;47.872;16.384;2022-07-06T11:10:11;1.70;;;1.00;;
55469;SDS011;41334;47.872;16.384;2022-07-06T11:13:28;7.05;;;1.30;;
55469;SDS011;41334;47.872;16.384;2022-07-06T11:16:37;4.88;;;1.20;;
55469;SDS011;41334;47.872;16.384;2022-07-06T11:19:51;6.97;;;2.08;;
55469;SDS011;41334;47.872;16.384;2022-07-06T11:22:57;3.53;;;1.48;;
55469;SDS011;41334;47.872;16.384;2022-07-06T11:26:00;1.10;;;0.80;;
55469;SDS011;41334;47.872;16.384;2022-07-06T11:29:06;4.30;;;1.80;;
55469;SDS011;41334;47.872;16.384;2022-07-06T11:32:10;3.40;;;1.60;;
55469;SDS011;41334;47.872;16.384;2022-07-06T11:35:20;2.72;;;1.45;;
55469;SDS011;41334;47.872;16.384;2022-07-06T11:38:26;2.70;;;1.33;;
55469;SDS011;41334;47.872;16.384;2022-07-06T11:41:28;2.13;;;1.35;;
55469;SDS011;41334;47.872;16.384;2022-07-06T11:44:30;1.85;;;1.10;;
55469;SDS011;41334;47.872;16.384;2022-07-06T11:47:33;2.35;;;1.00;;
55469;SDS011;41334;47.872;16.384;2022-07-06T11:50:35;2.83;;;1.48;;
55469;SDS011;41334;47.872;16.384;2022-07-06T11:53:37;3.58;;;1.20;;
55469;SDS011;41334;47.872;16.384;2022-07-06T11:57:00;1.90;;;1.27;;
55469;SDS011;41334;47.872;16.384;2022-07-06T12:00:05;2.33;;;1.50;;
55469;SDS011;41334;47.872;16.384;2022-07-06T12:03:15;3.13;;;1.50;;
55469;SDS011;41334;47.872;16.384;2022-07-06T12:06:18;3.70;;;1.10;;
55469;SDS011;41334;47.872;16.384;2022-07-06T12:09:22;3.55;;;1.10;;
55469;SDS011;41334;47.872;16.384;2022-07-06T12:12:24;3.13;;;1.13;;
55469;SDS011;41334;47.872;16.384;2022-07-06T12:15:28;2.65;;;1.33;;
55469;SDS011;41334;47.872;16.384;2022-07-06T12:18:37;1.98;;;1.40;;
55469;SDS011;41334;47.872;16.384;2022-07-06T12:21:44;3.35;;;1.23;;
55469;SDS011;41334;47.872;16.384;2022-07-06T12:24:46;2.60;;;1.20;;
55469;SDS011;41334;47.872;16.384;2022-07-06T12:27:48;4.03;;;1.35;;
55469;SDS011;41334;47.872;16.384;2022-07-06T12:30:50;1.35;;;0.90;;
55469;SDS011;41334;47.872;16.384;2022-07-06T12:33:58;1.73;;;1.00;;
55469;SDS011;41334;47.872;16.384;2022-07-06T12:37:08;1.90;;;1.15;;
55469;SDS011;41334;47.872;16.384;2022-07-06T12:40:11;3.45;;;1.20;;
55469;SDS011;41334;47.872;16.384;2022-07-06T12:43:18;2.15;;;1.10;;
55469;SDS011;41334;47.872;16.384;2022-07-06T12:46:37;1.67;;;1.17;;
55469;SDS011;41334;47.872;16.384;2022-07-06T12:49:40;1.52;;;1.10;;
55469;SDS011;41334;47.872;16.384;2022-07-06T12:52:42;1.63;;;1.10;;
55469;SDS011;41334;47.872;16.384;2022-07-06T12:55:44;2.30;;;1.17;;
55469;SDS011;41334;47.872;16.384;2022-07-06T12:58:59;1.90;;;1.20;;
55469;SDS011;41334;47.872;16.384;2022-07-06T13:02:02;4.32;;;1.20;;
55469;SDS011;41334;47.872;16.384;2022-07-06T13:05:08;3.20;;;1.23;;
55469;SDS011;41334;47.872;16.384;2022-07-06T13:08:11;3.60;;;1.00;;
55469;SDS011;41334;47.872;16.384;2022-07-06T13:11:13;2.17;;;1.25;;
55469;SDS011;41334;47.872;16.384;2022-07-06T13:14:15;2.38;;;1.20;;
55469;SDS011;41334;47.872;16.384;2022-07-06T13:17:19;4.38;;;1.75;;
55469;SDS011;41334;47.872;16.384;2022-07-06T13:20:20;6.55;;;1.58;;
55469;SDS011;41334;47.872;16.384;2022-07-06T13:23:22;3.13;;;1.38;;
55469;SDS011;41334;47.872;16.384;2022-07-06T13:26:25;2.00;;;1.30;;
55469;SDS011;41334;47.872;16.384;2022-07-06T13:29:27;2.53;;;1.73;;
55469;SDS011;41334;47.872;16.384;2022-07-06T13:32:29;1.48;;;1.10;;
55469;SDS011;41334;47.872;16.384;2022-07-06T13:35:31;1.40;;;1.00;;
55469;SDS011;41334;47.872;16.384;2022-07-06T13:38:33;4.47;;;1.48;;
55469;SDS011;41334;47.872;16.384;2022-07-06T13:41:35;3.47;;;1.40;;
55469;SDS011;41334;47.872;16.384;2022-07-06T13:44:37;2.28;;;1.30;;
55469;SDS011;41334;47.872;16.384;2022-07-06T13:47:39;2.22;;;0.93;;
55469;SDS011;41334;47.872;16.384;2022-07-06T13:50:41;1.88;;;1.45;;
55469;SDS011;41334;47.872;16.384;2022-07-06T13:53:43;3.85;;;1.52;;
55469;SDS011;41334;47.872;16.384;2022-07-06T13:56:45;1.90;;;1.20;;
55469;SDS011;41334;47.872;16.384;2022-07-06T13:59:47;1.30;;;0.93;;
55469;SDS011;41334;47.872;16.384;2022-07-06T14:02:51;1.40;;;0.90;;
55469;SDS011;41334;47.872;16.384;2022-07-06T14:05:53;5.75;;;0.80;;
55469;SDS011;41334;47.872;16.384;2022-07-06T14:08:56;0.90;;;0.60;;
55469;SDS011;41334;47.872;16.384;2022-07-06T14:11:58;1.08;;;0.73;;
55469;SDS011;41334;47.872;16.384;2022-07-06T14:15:01;3.20;;;1.10;;
55469;SDS011;41334;47.872;16.384;2022-07-06T14:18:03;2.03;;;0.90;;
55469;SDS011;41334;47.872;16.384;2022-07-06T14:21:05;1.15;;;0.68;;
55469;SDS011;41334;47.872;16.384;2022-07-06T14:24:08;1.17;;;0.70;;
55469;SDS011;41334;47.872;16.384;2022-07-06T14:27:09;1.02;;;0.63;;
55469;SDS011;41334;47.872;16.384;2022-07-06T14:30:11;1.30;;;0.75;;
55469;SDS011;41334;47.872;16.384;2022-07-06T14:33:14;2.45;;;1.30;;
55469;SDS011;41334;47.872;16.384;2022-07-06T14:36:16;1.25;;;0.75;;
55469;SDS011;41334;47.872;16.384;2022-07-06T14:39:18;2.50;;;1.40;;
55469;SDS011;41334;47.872;16.384;2022-07-06T14:42:20;1.45;;;1.05;;
55469;SDS011;41334;47.872;16.384;2022-07-06T14:45:22;2.90;;;0.90;;
55469;SDS011;41334;47.872;16.384;2022-07-06T14:48:24;2.72;;;1.35;;
55469;SDS011;41334;47.872;16.384;2022-07-06T14:51:26;2.60;;;0.93;;
55469;SDS011;41334;47.872;16.384;2022-07-06T14:54:28;1.83;;;0.90;;
55469;SDS011;41334;47.872;16.384;2022-07-06T14:57:30;4.57;;;1.00;;
55469;SDS011;41334;47.872;16.384;2022-07-06T15:00:32;2.67;;;0.90;;
55469;SDS011;41334;47.872;16.384;2022-07-06T15:03:34;3.90;;;1.20;;
55469;SDS011;41334;47.872;16.384;2022-07-06T15:06:36;5.28;;;1.45;;
55469;SDS011;41334;47.872;16.384;2022-07-06T15:09:57;1.52;;;1.00;;
55469;SDS011;41334;47.872;16.384;2022-07-06T15:12:58;2.00;;;1.38;;
55469;SDS011;41334;47.872;16.384;2022-07-06T15:16:00;2.42;;;1.40;;
55469;SDS011;41334;47.872;16.384;2022-07-06T15:19:03;3.70;;;1.30;;
55469;SDS011;41334;47.872;16.384;2022-07-06T15:22:05;1.35;;;0.85;;
55469;SDS011;41334;47.872;16.384;2022-07-06T15:25:07;4.80;;;1.23;;
55469;SDS011;41334;47.872;16.384;2022-07-06T15:28:09;1.67;;;1.13;;
55469;SDS011;41334;47.872;16.384;2022-07-06T15:31:11;2.40;;;1.20;;
55469;SDS011;41334;47.872;16.384;2022-07-06T15:34:17;2.25;;;1.17;;
55469;SDS011;41334;47.872;16.384;2022-07-06T15:37:19;1.15;;;0.80;;
55469;SDS011;41334;47.872;16.384;2022-07-06T15:40:21;3.17;;;1.17;;
55469;SDS011;41334;47.872;16.384;2022-07-06T15:43:26;3.70;;;1.47;;
55469;SDS011;41334;47.872;16.384;2022-07-06T15:46:30;1.83;;;1.27;;
55469;SDS011;41334;47.872;16.384;2022-07-06T15:49:33;1.55;;;1.00;;
55469;SDS011;41334;47.872;16.384;2022-07-06T15:52:35;0.90;;;0.50;;
55469;SDS011;41334;47.872;16.384;2022-07-06T15:55:37;1.58;;;0.80;;
55469;SDS011;41334;47.872;16.384;2022-07-06T15:58:39;1.05;;;0.60;;
55469;SDS011;41334;47.872;16.384;2022-07-06T16:01:42;2.35;;;0.80;;
55469;SDS011;41334;47.872;16.384;2022-07-06T16:04:44;0.70;;;0.40;;
55469;SDS011;41334;47.872;16.384;2022-07-06T16:07:46;1.17;;;0.70;;
55469;SDS011;41334;47.872;16.384;2022-07-06T16:11:08;1.20;;;0.70;;
55469;SDS011;41334;47.872;16.384;2022-07-06T16:14:11;1.13;;;0.70;;
55469;SDS011;41334;47.872;16.384;2022-07-06T16:17:12;2.05;;;0.80;;
55469;SDS011;41334;47.872;16.384;2022-07-06T16:20:15;0.77;;;0.50;;
55469;SDS011;41334;47.872;16.384;2022-07-06T16:23:17;3.10;;;0.80;;
55469;SDS011;41334;47.872;16.384;2022-07-06T16:26:19;1.33;;;0.63;;
55469;SDS011;41334;47.872;16.384;2022-07-06T16:29:21;1.27;;;0.77;;
55469;SDS011;41334;47.872;16.384;2022-07-06T16:32:23;0.63;;;0.40;;
55469;SDS011;41334;47.872;16.384;2022-07-06T16:35:25;1.88;;;0.73;;
55469;SDS011;41334;47.872;16.384;2022-07-06T16:38:30;2.00;;;0.83;;
55469;SDS011;41334;47.872;16.384;2022-07-06T16:41:32;1.67;;;0.77;;
55469;SDS011;41334;47.872;16.384;2022-07-06T16:44:35;1.58;;;0.80;;
55469;SDS011;41334;47.872;16.384;2022-07-06T16:47:37;1.40;;;0.90;;
55469;SDS011;41334;47.872;16.384;2022-07-06T16:50:39;1.05;;;0.73;;
55469;SDS011;41334;47.872;16.384;2022-07-06T16:53:41;3.35;;;0.75;;
55469;SDS011;41334;47.872;16.384;2022-07-06T16:56:43;1.20;;;0.80;;
55469;SDS011;41334;47.872;16.384;2022-07-06T16:59:45;1.10;;;0.70;;
55469;SDS011;41334;47.872;16.384;2022-07-06T17:02:47;3.15;;;0.65;;
55469;SDS011;41334;47.872;16.384;2022-07-06T17:05:49;5.78;;;0.88;;
55469;SDS011;41334;47.872;16.384;2022-07-06T17:08:51;1.60;;;0.73;;
55469;SDS011;41334;47.872;16.384;2022-07-06T17:11:54;4.30;;;0.98;;
55469;SDS011;41334;47.872;16.384;2022-07-06T17:14:55;2.13;;;0.93;;
55469;SDS011;41334;47.872;16.384;2022-07-06T17:17:58;1.83;;;1.20;;
55469;SDS011;41334;47.872;16.384;2022-07-06T17:21:01;2.40;;;0.70;;
55469;SDS011;41334;47.872;16.384;2022-07-06T17:24:03;2.90;;;0.77;;
55469;SDS011;41334;47.872;16.384;2022-07-06T17:27:05;1.00;;;0.70;;
55469;SDS011;41334;47.872;16.384;2022-07-06T17:30:07;2.97;;;0.80;;
55469;SDS011;41334;47.872;16.384;2022-07-06T17:33:09;1.60;;;1.00;;
55469;SDS011;41334;47.872;16.384;2022-07-06T17:36:11;1.25;;;0.77;;
55469;SDS011;41334;47.872;16.384;2022-07-06T17:39:13;1.48;;;0.60;;
55469;SDS011;41334;47.872;16.384;2022-07-06T17:42:16;1.88;;;0.90;;
55469;SDS011;41334;47.872;16.384;2022-07-06T17:45:19;1.40;;;0.70;;
55469;SDS011;41334;47.872;16.384;2022-07-06T17:48:22;1.58;;;0.73;;
55469;SDS011;41334;47.872;16.384;2022-07-06T17:51:24;1.27;;;0.60;;
55469;SDS011;41334;47.872;16.384;2022-07-06T17:54:25;1.15;;;0.57;;
55469;SDS011;41334;47.872;16.384;2022-07-06T17:57:28;3.03;;;0.68;;
55469;SDS011;41334;47.872;16.384;2022-07-06T18:00:30;2.22;;;0.75;;
55469;SDS011;41334;47.872;16.384;2022-07-06T18:03:33;0.77;;;0.57;;
55469;SDS011;41334;47.872;16.384;2022-07-06T18:06:35;1.58;;;1.00;;
55469;SDS011;41334;47.872;16.384;2022-07-06T18:09:37;2.13;;;0.70;;
55469;SDS011;41334;47.872;16.384;2022-07-06T18:12:39;1.05;;;0.70;;
55469;SDS011;41334;47.872;16.384;2022-07-06T18:15:41;1.38;;;0.90;;